createdAt,value
2019-05-14T00:04:45.290Z,99.40
2019-05-14T00:09:51.936Z,99.90
2019-05-14T00:14:58.481Z,99.90
2019-05-14T00:20:09.861Z,99.90
2019-05-14T00:25:13.895Z,99.90
2019-05-14T00:30:22.092Z,99.90
2019-05-14T00:35:28.501Z,99.90
2019-05-14T00:40:34.595Z,99.90
2019-05-14T00:45:41.796Z,99.90
2019-05-14T00:50:48.002Z,99.90
2019-05-14T00:55:54.194Z,99.90
2019-05-14T01:01:01.588Z,99.90
2019-05-14T01:06:07.955Z,99.90
2019-05-14T01:11:14.206Z,99.90
2019-05-14T01:16:22.236Z,99.90
2019-05-14T01:21:31.199Z,99.90
2019-05-14T01:26:37.181Z,99.90
2019-05-14T01:31:43.176Z,99.90
2019-05-14T01:36:49.283Z,99.90
2019-05-14T01:41:55.586Z,99.90
2019-05-14T01:47:02.053Z,99.90
2019-05-14T01:52:08.451Z,99.90
2019-05-14T01:57:14.576Z,99.90
2019-05-14T02:02:22.116Z,99.90
2019-05-14T02:07:28.481Z,99.90
2019-05-14T02:12:34.743Z,99.90
2019-05-14T02:17:41.522Z,99.90
2019-05-14T02:22:47.792Z,99.90
2019-05-14T02:27:53.913Z,99.90
2019-05-14T02:32:59.916Z,99.90
2019-05-14T02:38:06.192Z,99.90
2019-05-14T02:43:12.346Z,99.90
2019-05-14T02:48:20.458Z,99.90
2019-05-14T02:53:29.415Z,99.90
2019-05-14T02:58:34.414Z,99.90
2019-05-14T03:03:40.598Z,99.90
2019-05-14T03:08:49.280Z,99.90
2019-05-14T03:13:54.811Z,99.90
2019-05-14T03:19:00.860Z,99.90
2019-05-14T03:24:09.404Z,99.90
2019-05-14T03:29:14.763Z,99.90
2019-05-14T03:34:22.576Z,99.90
2019-05-14T03:39:29.545Z,99.90
2019-05-14T03:44:39.519Z,99.90
2019-05-14T03:49:44.088Z,99.90
2019-05-14T03:54:50.437Z,99.90
2019-05-14T03:59:59.726Z,99.90
2019-05-14T04:05:09.346Z,99.90
2019-05-14T04:10:14.288Z,99.90
2019-05-14T04:15:23.656Z,99.90
2019-05-14T04:20:33.358Z,99.90
2019-05-14T04:25:41.672Z,99.90
2019-05-14T04:30:50.688Z,99.90
2019-05-14T04:35:59.887Z,99.90
2019-05-14T04:41:05.708Z,99.90
2019-05-14T04:46:12.030Z,99.90
2019-05-14T04:51:19.849Z,99.90
2019-05-14T04:56:30.176Z,99.90
2019-05-14T05:01:39.879Z,99.90
2019-05-14T05:06:45.018Z,99.90
2019-05-14T05:11:52.371Z,99.90
2019-05-14T05:16:59.744Z,99.90
2019-05-14T05:22:08.009Z,99.90
2019-05-14T05:27:14.057Z,99.90
2019-05-14T05:32:20.162Z,99.90
2019-05-14T05:37:26.566Z,99.90
2019-05-14T05:42:32.998Z,99.90
2019-05-14T05:47:43.357Z,99.90
2019-05-14T05:52:49.880Z,99.90
2019-05-14T05:57:55.334Z,99.90
2019-05-14T06:03:01.707Z,99.90
2019-05-14T06:08:08.658Z,99.90
2019-05-14T06:13:15.073Z,99.90
2019-05-14T06:18:22.177Z,99.90
2019-05-14T06:23:28.894Z,99.90
2019-05-14T06:28:35.244Z,99.90
2019-05-14T06:33:41.582Z,99.90
2019-05-14T06:38:49.405Z,99.90
2019-05-14T06:43:58.906Z,99.90
2019-05-14T06:49:05.550Z,99.90
2019-05-14T06:54:11.856Z,99.90
2019-05-14T06:59:18.363Z,99.90
2019-05-14T07:04:24.548Z,99.90
2019-05-14T07:09:32.792Z,99.90
2019-05-14T07:14:39.107Z,99.90
2019-05-14T07:19:45.426Z,99.90
2019-05-14T07:24:51.652Z,99.90
2019-05-14T07:29:58.402Z,99.90
2019-05-14T07:35:08.914Z,99.90
2019-05-14T07:40:15.566Z,99.90
2019-05-14T07:45:22.355Z,99.90
2019-05-14T07:50:29.071Z,99.90
2019-05-14T07:55:35.530Z,99.90
2019-05-14T08:00:41.917Z,99.90
2019-05-14T08:05:49.119Z,99.90
2019-05-14T08:10:55.526Z,99.90
2019-05-14T08:16:01.943Z,99.90
2019-05-14T08:21:09.689Z,99.90
2019-05-14T08:26:18.783Z,99.90
2019-05-14T08:31:24.389Z,99.90
2019-05-14T08:36:31.894Z,99.90
2019-05-14T08:41:38.484Z,99.90
2019-05-14T08:46:45.360Z,99.90
2019-05-14T08:51:51.571Z,99.90
2019-05-14T08:56:58.383Z,99.90
2019-05-14T09:02:06.817Z,99.90
2019-05-14T09:07:13.466Z,99.90
2019-05-14T09:12:19.631Z,99.90
2019-05-14T09:17:28.731Z,99.90
2019-05-14T09:22:34.402Z,99.90
2019-05-14T09:27:40.659Z,99.90
2019-05-14T09:32:49.329Z,99.90
2019-05-14T09:37:55.082Z,99.90
2019-05-14T09:43:01.612Z,99.90
2019-05-14T09:48:08.887Z,99.90
2019-05-14T09:53:15.111Z,99.90
2019-05-14T09:58:21.376Z,99.90
2019-05-14T10:03:28.620Z,99.90
2019-05-14T10:08:34.981Z,99.90
2019-05-14T10:13:41.224Z,99.90
2019-05-14T10:18:52.750Z,99.90
2019-05-14T10:23:58.621Z,99.90
2019-05-14T10:29:05.367Z,99.90
2019-05-14T10:34:11.612Z,98.20
2019-05-14T10:39:19.198Z,99.20
2019-05-14T10:44:25.449Z,97.70
2019-05-14T10:49:31.679Z,94.50
2019-05-14T10:54:40.282Z,92.80
2019-05-14T10:59:45.800Z,94.40
2019-05-14T11:04:52.247Z,97.10
2019-05-14T11:09:58.390Z,98.60
2019-05-14T11:15:05.742Z,97.30
2019-05-14T11:20:13.555Z,97.10
2019-05-14T11:25:20.058Z,96.20
2019-05-14T11:30:28.612Z,94.00
2019-05-14T11:35:34.803Z,95.00
2019-05-14T11:40:41.154Z,96.00
2019-05-14T11:45:48.532Z,94.50
2019-05-14T11:51:01.440Z,93.20
2019-05-14T11:56:08.711Z,93.30
2019-05-14T12:01:18.953Z,93.60
2019-05-14T12:06:24.544Z,92.00
2019-05-14T12:11:31.004Z,91.60
2019-05-14T12:16:39.303Z,91.70
2019-05-14T12:21:58.728Z,86.80
2019-05-14T12:26:53.248Z,87.70
2019-05-14T12:31:59.509Z,88.50
2019-05-14T12:37:05.962Z,83.90
2019-05-14T12:42:12.300Z,88.00
2019-05-14T12:47:18.909Z,85.70
2019-05-14T12:52:26.234Z,87.80
2019-05-14T12:57:32.784Z,86.40
2019-05-14T13:02:39.130Z,86.50
2019-05-14T13:07:45.386Z,85.40
2019-05-14T13:12:51.683Z,80.50
2019-05-14T13:17:57.777Z,81.40
2019-05-14T13:23:04.180Z,85.20
2019-05-14T13:28:10.478Z,81.20
2019-05-14T13:33:19.079Z,82.60
2019-05-14T13:38:25.861Z,85.70
2019-05-14T13:43:32.067Z,82.30
2019-05-14T13:48:42.670Z,82.70
2019-05-14T13:53:46.541Z,86.20
2019-05-14T13:58:52.841Z,81.90
2019-05-14T14:04:09.702Z,82.10
2019-05-14T14:09:12.492Z,78.90
2019-05-14T14:14:19.898Z,79.60
2019-05-14T14:19:28.046Z,79.00
2019-05-14T14:24:34.209Z,79.80
2019-05-14T14:29:40.757Z,77.70
2019-05-14T14:34:47.157Z,75.30
2019-05-14T14:39:53.406Z,78.00
2019-05-14T14:44:59.808Z,76.00
2019-05-14T14:50:08.387Z,78.60
2019-05-14T14:55:14.583Z,78.50
2019-05-14T15:00:21.133Z,76.70
2019-05-14T15:05:29.662Z,75.80
2019-05-14T15:10:35.863Z,74.00
2019-05-14T15:15:42.226Z,75.90
2019-05-14T15:20:49.017Z,77.20
2019-05-14T15:25:55.448Z,78.50
2019-05-14T15:31:01.784Z,74.70
2019-05-14T15:36:09.074Z,76.10
2019-05-14T15:41:15.684Z,75.90
2019-05-14T15:46:21.833Z,77.10
2019-05-14T15:51:28.611Z,75.90
2019-05-14T15:56:35.029Z,74.80
2019-05-14T16:01:42.455Z,75.50
2019-05-14T16:06:49.472Z,72.90
2019-05-14T16:11:58.906Z,75.60
2019-05-14T16:17:05.603Z,74.20
2019-05-14T16:22:12.295Z,75.50
2019-05-14T16:27:19.723Z,76.30
2019-05-14T16:32:28.433Z,74.70
2019-05-14T16:37:34.558Z,75.40
2019-05-14T16:42:40.921Z,76.60
2019-05-14T16:47:47.054Z,76.90
2019-05-14T16:52:53.333Z,76.00
2019-05-14T16:57:59.583Z,75.60
2019-05-14T17:03:08.173Z,75.00
2019-05-14T17:08:13.654Z,74.80
2019-05-14T17:13:19.845Z,74.10
2019-05-14T17:18:28.574Z,73.20
2019-05-14T17:23:33.949Z,71.50
2019-05-14T17:28:40.678Z,72.80
2019-05-14T17:33:49.295Z,72.30
2019-05-14T17:38:55.297Z,72.80
2019-05-14T17:44:01.791Z,74.30
2019-05-14T17:49:07.994Z,74.90
2019-05-14T17:54:15.464Z,73.30
2019-05-14T17:59:21.848Z,91.00
2019-05-14T18:04:28.501Z,79.90
2019-05-14T18:09:34.940Z,85.00
2019-05-14T18:14:41.210Z,82.30
2019-05-14T18:19:48.376Z,80.50
2019-05-14T18:24:55.041Z,79.80
2019-05-14T18:30:01.956Z,81.40
2019-05-14T18:35:08.549Z,78.50
2019-05-14T18:40:15.072Z,78.40
2019-05-14T18:45:21.762Z,79.00
2019-05-14T18:50:28.859Z,79.10
2019-05-14T18:55:35.319Z,81.30
2019-05-14T19:00:41.547Z,81.40
2019-05-14T19:05:48.276Z,81.70
2019-05-14T19:10:54.503Z,81.80
2019-05-14T19:16:02.897Z,82.10
2019-05-14T19:21:09.387Z,83.70
2019-05-14T19:26:15.656Z,85.30
2019-05-14T19:31:23.669Z,84.70
2019-05-14T19:36:30.854Z,85.10
2019-05-14T19:41:38.917Z,84.80
2019-05-14T19:46:45.117Z,84.70
2019-05-14T19:51:51.467Z,89.60
2019-05-14T19:57:00.699Z,86.00
2019-05-14T20:02:05.684Z,87.60
2019-05-14T20:07:12.534Z,87.90
2019-05-14T20:12:18.628Z,88.30
2019-05-14T20:17:25.428Z,88.50
2019-05-14T20:22:31.751Z,89.60
2019-05-14T20:27:39.662Z,89.90
2019-05-14T20:32:46.265Z,90.80
2019-05-14T20:37:52.625Z,90.70
2019-05-14T20:42:59.107Z,90.50
2019-05-14T20:48:05.499Z,91.30
2019-05-14T20:53:11.825Z,92.10
2019-05-14T20:58:19.847Z,92.40
2019-05-14T21:03:25.857Z,92.20
2019-05-14T21:08:32.094Z,93.20
2019-05-14T21:13:39.139Z,93.40
2019-05-14T21:18:45.389Z,93.30
2019-05-14T21:23:51.910Z,93.50
2019-05-14T21:28:58.453Z,94.20
2019-05-14T21:34:05.542Z,94.40
2019-05-14T21:39:11.792Z,94.30
2019-05-14T21:44:18.819Z,95.20
2019-05-14T21:49:25.141Z,95.80
2019-05-14T21:54:32.245Z,96.50
2019-05-14T21:59:39.023Z,97.40
2019-05-14T22:04:45.534Z,97.90
2019-05-14T22:09:51.727Z,98.50
2019-05-14T22:14:58.997Z,99.30
2019-05-14T22:20:08.112Z,99.90
2019-05-14T22:25:14.412Z,99.90
2019-05-14T22:30:21.122Z,99.90
2019-05-14T22:35:28.317Z,99.90
2019-05-14T22:40:35.205Z,99.90
2019-05-14T22:45:41.374Z,99.90
2019-05-14T22:50:48.548Z,99.90
2019-05-14T22:55:54.980Z,99.90
2019-05-14T23:01:13.909Z,99.90
2019-05-14T23:06:09.222Z,99.90
2019-05-14T23:11:15.397Z,99.90
2019-05-14T23:16:33.434Z,99.90
2019-05-14T23:21:29.445Z,99.90
2019-05-14T23:26:35.666Z,99.90
2019-05-14T23:31:41.889Z,99.90
2019-05-14T23:36:48.365Z,99.90
2019-05-14T23:41:54.904Z,99.90
2019-05-14T23:47:01.043Z,99.90
2019-05-14T23:52:07.219Z,99.90
2019-05-14T23:57:13.686Z,99.90
